createdAt,value
2023-04-14T00:02:08.434Z,4.13
2023-04-14T00:04:35.882Z,4.30
2023-04-14T00:07:02.492Z,3.63
2023-04-14T00:09:29.982Z,5.40
2023-04-14T00:11:57.363Z,5.03
2023-04-14T00:14:23.894Z,6.17
2023-04-14T00:16:50.413Z,2.27
2023-04-14T00:19:16.965Z,5.10
2023-04-14T00:21:43.394Z,4.57
2023-04-14T00:24:09.874Z,3.87
2023-04-14T00:26:36.377Z,5.13
2023-04-14T00:29:03.189Z,3.63
2023-04-14T00:31:29.898Z,5.67
2023-04-14T00:33:56.392Z,6.27
2023-04-14T00:36:22.928Z,2.87
2023-04-14T00:38:49.544Z,4.23
2023-04-14T00:41:16.045Z,3.63
2023-04-14T00:43:42.564Z,3.47
2023-04-14T00:46:09.163Z,8.33
2023-04-14T00:48:36.119Z,3.63
2023-04-14T00:51:03.727Z,3.90
2023-04-14T00:53:31.774Z,4.13
2023-04-14T00:55:59.269Z,4.50
2023-04-14T00:58:26.255Z,5.57
2023-04-14T01:00:55.752Z,4.37
2023-04-14T01:03:24.563Z,4.73
2023-04-14T01:05:51.415Z,8.57
2023-04-14T01:08:19.316Z,6.13
2023-04-14T01:11:08.905Z,2.47
2023-04-14T01:13:46.119Z,4.03
2023-04-14T01:16:29.393Z,6.57
2023-04-14T01:19:22.766Z,4.50
2023-04-14T01:21:56.808Z,6.93
2023-04-14T01:24:37.974Z,3.60
2023-04-14T01:27:33.128Z,4.63
2023-04-14T01:30:31.126Z,3.73
2023-04-14T01:33:01.439Z,4.17
2023-04-14T01:35:36.663Z,5.50
2023-04-14T01:38:14.735Z,4.57
2023-04-14T01:40:47.555Z,3.27
2023-04-14T01:43:16.051Z,5.07
2023-04-14T01:45:48.939Z,3.77
2023-04-14T01:48:16.737Z,2.50
2023-04-14T01:50:47.066Z,4.57
2023-04-14T01:53:16.429Z,2.63
2023-04-14T01:55:44.289Z,5.00
2023-04-14T01:58:12.509Z,6.37
2023-04-14T02:00:41.134Z,8.00
2023-04-14T02:03:08.569Z,6.43
2023-04-14T02:05:38.216Z,5.03
2023-04-14T02:08:10.057Z,3.67
2023-04-14T02:10:39.273Z,4.63
2023-04-14T02:13:07.795Z,3.00
2023-04-14T02:15:35.256Z,4.27
2023-04-14T02:18:04.794Z,6.37
2023-04-14T02:20:32.956Z,7.00
2023-04-14T02:23:00.515Z,4.87
2023-04-14T02:25:34.854Z,5.00
2023-04-14T02:28:06.588Z,4.50
2023-04-14T02:30:37.963Z,5.33
2023-04-14T02:33:07.838Z,7.10
2023-04-14T02:35:47.142Z,6.20
2023-04-14T02:38:29.589Z,3.53
2023-04-14T02:40:56.407Z,5.13
2023-04-14T02:43:32.049Z,4.00
2023-04-14T02:46:02.839Z,5.73
2023-04-14T02:48:34.704Z,5.87
2023-04-14T02:51:03.552Z,7.03
2023-04-14T02:53:31.045Z,5.67
2023-04-14T02:56:08.689Z,4.73
2023-04-14T02:58:39.600Z,5.83
2023-04-14T03:01:06.968Z,3.37
2023-04-14T03:03:37.552Z,5.30
2023-04-14T03:06:08.613Z,3.17
2023-04-14T03:08:37.267Z,6.63
2023-04-14T03:11:05.268Z,5.80
2023-04-14T03:13:34.466Z,4.77
2023-04-14T03:16:03.348Z,5.83
2023-04-14T03:18:32.233Z,2.23
2023-04-14T03:21:01.722Z,5.00
2023-04-14T03:23:31.925Z,7.30
2023-04-14T03:26:03.293Z,6.37
2023-04-14T03:28:32.535Z,5.23
2023-04-14T03:31:04.570Z,5.97
2023-04-14T03:33:41.469Z,3.33
2023-04-14T03:36:12.597Z,4.17
2023-04-14T03:38:42.051Z,7.00
2023-04-14T03:41:10.297Z,4.77
2023-04-14T03:43:38.742Z,6.13
2023-04-14T03:46:10.886Z,5.30
2023-04-14T03:48:42.748Z,6.00
2023-04-14T03:51:13.853Z,3.50
2023-04-14T03:53:43.243Z,5.83
2023-04-14T03:56:13.443Z,5.27
2023-04-14T03:58:44.129Z,5.17
2023-04-14T04:01:12.400Z,5.53
2023-04-14T04:03:39.984Z,6.13
2023-04-14T04:06:07.329Z,4.63
2023-04-14T04:08:36.021Z,4.87
2023-04-14T04:11:07.300Z,6.70
2023-04-14T04:13:36.635Z,5.90
2023-04-14T04:16:07.350Z,6.77
2023-04-14T04:18:38.057Z,4.63
2023-04-14T04:21:08.076Z,6.27
2023-04-14T04:23:39.502Z,4.70
2023-04-14T04:26:06.165Z,5.90
2023-04-14T04:28:38.799Z,7.27
2023-04-14T04:31:06.525Z,3.60
2023-04-14T04:33:34.547Z,7.53
2023-04-14T04:36:02.995Z,6.77
2023-04-14T04:38:35.390Z,5.63
2023-04-14T04:41:02.452Z,4.27
2023-04-14T04:43:30.308Z,5.80
2023-04-14T04:46:21.232Z,5.43
2023-04-14T04:48:52.443Z,10.07
2023-04-14T04:51:19.068Z,6.83
2023-04-14T04:53:45.784Z,7.00
2023-04-14T04:56:12.303Z,5.70
2023-04-14T04:58:38.721Z,4.37
2023-04-14T05:01:11.647Z,4.27
2023-04-14T05:03:38.612Z,5.80
2023-04-14T05:06:05.406Z,6.23
2023-04-14T05:08:31.848Z,8.50
2023-04-14T05:10:58.397Z,5.43
2023-04-14T05:13:25.664Z,8.70
2023-04-14T05:15:52.471Z,6.07
2023-04-14T05:18:19.481Z,5.60
2023-04-14T05:20:46.270Z,4.40
2023-04-14T05:23:13.373Z,5.20
2023-04-14T05:25:39.967Z,4.23
2023-04-14T05:28:06.390Z,4.47
2023-04-14T05:30:32.897Z,4.83
2023-04-14T05:32:59.363Z,3.20
2023-04-14T05:35:26.018Z,4.90
2023-04-14T05:37:52.505Z,3.10
2023-04-14T05:40:20.468Z,6.17
2023-04-14T05:42:46.874Z,6.50
2023-04-14T05:45:13.569Z,3.93
2023-04-14T05:47:39.972Z,7.70
2023-04-14T05:50:07.810Z,5.60
2023-04-14T05:52:34.260Z,5.47
2023-04-14T05:55:01.051Z,4.45
2023-04-14T05:57:27.546Z,4.70
2023-04-14T05:59:54.751Z,4.83
2023-04-14T06:02:21.894Z,4.00
2023-04-14T06:04:49.120Z,4.47
2023-04-14T06:07:15.769Z,5.70
2023-04-14T06:09:42.715Z,4.93
2023-04-14T06:12:09.478Z,6.37
2023-04-14T06:14:35.906Z,5.23
2023-04-14T06:17:02.314Z,3.83
2023-04-14T06:19:28.783Z,5.20
2023-04-14T06:21:55.253Z,5.80
2023-04-14T06:24:21.729Z,4.97
2023-04-14T06:26:48.152Z,3.43
2023-04-14T06:29:16.023Z,5.73
2023-04-14T06:31:42.673Z,3.17
2023-04-14T06:34:09.296Z,9.43
2023-04-14T06:36:35.968Z,6.50
2023-04-14T06:39:02.977Z,8.77
2023-04-14T06:41:29.617Z,7.43
2023-04-14T06:43:56.460Z,9.03
2023-04-14T06:46:22.930Z,7.47
2023-04-14T06:48:49.560Z,9.67
2023-04-14T06:51:16.149Z,6.77
2023-04-14T06:53:42.690Z,5.77
2023-04-14T06:56:09.183Z,7.43
2023-04-14T06:58:36.001Z,7.73
2023-04-14T07:01:03.646Z,7.53
2023-04-14T07:03:31.377Z,8.43
2023-04-14T07:06:09.209Z,6.43
2023-04-14T07:08:36.739Z,7.30
2023-04-14T07:11:06.029Z,6.10
2023-04-14T07:13:32.776Z,6.97
2023-04-14T07:16:00.460Z,8.23
2023-04-14T07:18:26.993Z,7.67
2023-04-14T07:20:54.147Z,5.37
2023-04-14T07:23:21.664Z,6.47
2023-04-14T07:25:52.873Z,5.47
2023-04-14T07:28:20.248Z,6.85
2023-04-14T07:30:46.750Z,7.80
2023-04-14T07:33:13.567Z,4.53
2023-04-14T07:35:48.038Z,7.05
2023-04-14T07:38:21.294Z,4.78
2023-04-14T07:40:47.714Z,5.15
2023-04-14T07:43:14.221Z,4.07
2023-04-14T07:45:41.422Z,6.22
2023-04-14T07:48:08.544Z,4.75
2023-04-14T07:50:34.950Z,4.05
2023-04-14T07:53:01.982Z,4.88
2023-04-14T07:55:28.437Z,4.45
2023-04-14T07:57:54.950Z,4.55
2023-04-14T08:00:23.068Z,6.53
2023-04-14T08:02:49.659Z,5.78
2023-04-14T08:05:16.413Z,3.60
2023-04-14T08:07:42.964Z,5.35
2023-04-14T08:10:09.404Z,6.20
2023-04-14T08:12:35.933Z,5.90
2023-04-14T08:15:02.364Z,6.70
2023-04-14T08:17:28.978Z,6.20
2023-04-14T08:19:55.732Z,6.65
2023-04-14T08:22:22.304Z,5.03
2023-04-14T08:24:48.712Z,6.18
2023-04-14T08:27:15.853Z,4.80
2023-04-14T08:29:42.285Z,5.30
2023-04-14T08:32:08.791Z,5.38
2023-04-14T08:34:35.246Z,5.93
2023-04-14T08:37:01.818Z,4.65
2023-04-14T08:39:28.741Z,5.50
2023-04-14T08:41:56.895Z,2.67
2023-04-14T08:44:23.302Z,2.88
2023-04-14T08:46:54.963Z,4.50
2023-04-14T08:49:35.934Z,5.68
2023-04-14T08:52:04.023Z,2.83
2023-04-14T08:54:31.158Z,5.50
2023-04-14T08:56:59.440Z,5.10
2023-04-14T08:59:27.451Z,5.70
2023-04-14T09:01:55.513Z,2.95
2023-04-14T09:04:23.703Z,4.65
2023-04-14T09:06:50.421Z,5.28
2023-04-14T09:09:18.040Z,4.72
2023-04-14T09:11:45.155Z,4.07
2023-04-14T09:14:13.145Z,3.38
2023-04-14T09:16:39.779Z,3.22
2023-04-14T09:19:07.351Z,2.70
2023-04-14T09:21:53.707Z,3.83
2023-04-14T09:24:30.344Z,5.65
2023-04-14T09:26:58.724Z,5.03
2023-04-14T09:29:25.683Z,4.13
2023-04-14T09:31:52.389Z,2.30
2023-04-14T09:34:20.787Z,6.07
2023-04-14T09:37:06.943Z,2.90
2023-04-14T09:39:34.804Z,2.70
2023-04-14T09:42:03.612Z,5.45
2023-04-14T09:44:30.656Z,1.27
2023-04-14T09:47:07.877Z,2.30
2023-04-14T09:49:34.354Z,4.78
2023-04-14T09:52:07.346Z,4.00
2023-04-14T09:54:34.016Z,3.03
2023-04-14T09:57:01.646Z,3.95
2023-04-14T09:59:36.711Z,5.15
2023-04-14T10:02:08.145Z,4.82
2023-04-14T10:04:35.499Z,2.90
2023-04-14T10:07:06.270Z,3.47
2023-04-14T10:09:37.589Z,3.90
2023-04-14T10:12:08.303Z,3.08
2023-04-14T10:14:36.889Z,3.00
2023-04-14T10:17:03.357Z,3.30
2023-04-14T10:19:30.073Z,2.65
2023-04-14T10:21:57.897Z,4.53
2023-04-14T10:24:25.232Z,3.63
2023-04-14T10:26:52.923Z,3.58
2023-04-14T10:29:20.364Z,3.63
2023-04-14T10:31:50.089Z,5.18
2023-04-14T10:34:17.070Z,5.45
2023-04-14T10:36:43.785Z,3.22
2023-04-14T10:39:12.982Z,4.10
2023-04-14T10:41:42.446Z,1.70
2023-04-14T10:44:32.608Z,3.30
2023-04-14T10:47:02.049Z,3.90
2023-04-14T10:49:34.136Z,2.80
2023-04-14T10:52:05.119Z,2.85
2023-04-14T10:55:07.893Z,2.35
2023-04-14T10:57:45.706Z,3.28
2023-04-14T11:00:21.578Z,4.05
2023-04-14T11:03:05.734Z,2.67
2023-04-14T11:05:34.062Z,3.03
2023-04-14T11:08:11.624Z,2.58
2023-04-14T11:10:38.134Z,3.03
2023-04-14T11:13:08.342Z,3.33
2023-04-14T11:16:05.148Z,4.13
2023-04-14T11:18:45.393Z,1.67
2023-04-14T11:21:15.597Z,2.78
2023-04-14T11:23:43.364Z,2.20
2023-04-14T11:26:12.271Z,2.05
2023-04-14T11:28:41.421Z,3.25
2023-04-14T11:31:10.125Z,2.67
2023-04-14T11:33:38.659Z,2.50
2023-04-14T11:36:07.042Z,1.77
2023-04-14T11:38:40.611Z,4.50
2023-04-14T11:41:07.942Z,3.05
2023-04-14T11:43:34.711Z,1.95
2023-04-14T11:46:05.115Z,2.30
2023-04-14T11:48:31.648Z,1.95
2023-04-14T11:51:03.276Z,3.85
2023-04-14T11:53:30.130Z,1.13
2023-04-14T11:55:57.527Z,1.88
2023-04-14T11:58:25.705Z,3.03
2023-04-14T12:00:56.038Z,2.38
2023-04-14T12:03:30.402Z,2.35
2023-04-14T12:06:01.671Z,1.40
2023-04-14T12:08:32.650Z,1.25
2023-04-14T12:11:11.595Z,1.25
2023-04-14T12:13:42.402Z,2.67
2023-04-14T12:16:09.980Z,2.47
2023-04-14T12:18:36.694Z,2.10
2023-04-14T12:21:06.330Z,2.47
2023-04-14T12:23:48.291Z,1.45
2023-04-14T12:26:15.009Z,1.65
2023-04-14T12:28:42.011Z,2.70
2023-04-14T12:31:09.706Z,3.63
2023-04-14T12:33:36.379Z,1.70
2023-04-14T12:36:13.148Z,1.40
2023-04-14T12:38:39.811Z,2.47
2023-04-14T12:41:06.271Z,2.10
2023-04-14T12:43:35.426Z,2.25
2023-04-14T12:46:06.128Z,2.05
2023-04-14T12:48:44.786Z,2.78
2023-04-14T12:51:16.317Z,2.33
2023-04-14T12:53:44.486Z,2.38
2023-04-14T12:56:13.093Z,2.88
2023-04-14T12:58:41.917Z,1.55
2023-04-14T13:01:12.831Z,3.50
2023-04-14T13:03:40.464Z,2.53
2023-04-14T13:06:07.529Z,2.30
2023-04-14T13:08:34.169Z,1.65
2023-04-14T13:11:00.629Z,2.15
2023-04-14T13:13:27.712Z,1.98
2023-04-14T13:16:21.140Z,2.80
2023-04-14T13:18:40.495Z,1.70
2023-04-14T13:21:07.077Z,2.42
2023-04-14T13:23:33.765Z,2.95
2023-04-14T13:26:00.413Z,3.30
2023-04-14T13:28:27.258Z,1.80
2023-04-14T13:30:55.952Z,2.40
2023-04-14T13:33:23.949Z,4.13
2023-04-14T13:35:51.123Z,3.72
2023-04-14T13:38:17.924Z,2.63
2023-04-14T13:40:46.130Z,2.95
2023-04-14T13:43:16.412Z,1.80
2023-04-14T13:45:42.920Z,1.50
2023-04-14T13:48:09.460Z,1.67
2023-04-14T13:50:35.929Z,2.67
2023-04-14T13:53:02.326Z,2.30
2023-04-14T13:55:28.820Z,4.38
2023-04-14T13:57:55.358Z,1.73
2023-04-14T14:00:21.842Z,2.17
2023-04-14T14:02:48.466Z,1.90
2023-04-14T14:05:15.353Z,1.40
2023-04-14T14:07:41.832Z,2.60
2023-04-14T14:10:10.431Z,2.17
2023-04-14T14:12:37.022Z,1.88
2023-04-14T14:15:04.791Z,2.65
2023-04-14T14:17:31.546Z,2.35
2023-04-14T14:19:58.335Z,1.38
2023-04-14T14:22:24.765Z,2.00
2023-04-14T14:24:51.387Z,1.70
2023-04-14T14:27:17.844Z,3.03
2023-04-14T14:29:44.301Z,2.58
2023-04-14T14:32:11.022Z,5.75
2023-04-14T14:34:38.944Z,1.27
2023-04-14T14:37:05.682Z,1.80
2023-04-14T14:39:32.622Z,1.50
2023-04-14T14:41:59.336Z,1.45
2023-04-14T14:44:25.925Z,1.95
2023-04-14T14:46:53.015Z,2.50
2023-04-14T14:49:20.876Z,3.20
2023-04-14T14:51:47.472Z,3.08
2023-04-14T14:54:14.335Z,1.48
2023-04-14T14:56:40.867Z,1.45
2023-04-14T14:59:08.494Z,3.08
2023-04-14T15:01:35.458Z,0.75
2023-04-14T15:04:02.468Z,1.90
2023-04-14T15:06:29.194Z,2.40
2023-04-14T15:08:55.848Z,2.15
2023-04-14T15:11:22.376Z,2.08
2023-04-14T15:13:48.821Z,2.15
2023-04-14T15:16:15.966Z,1.73
2023-04-14T15:18:42.952Z,1.77
2023-04-14T15:21:09.365Z,1.17
2023-04-14T15:23:39.442Z,2.95
2023-04-14T15:26:06.376Z,3.45
2023-04-14T15:28:33.847Z,1.75
2023-04-14T15:31:00.480Z,1.95
2023-04-14T15:33:26.934Z,2.35
2023-04-14T15:35:53.307Z,1.77
2023-04-14T15:38:19.849Z,1.05
2023-04-14T15:40:46.564Z,1.70
2023-04-14T15:43:14.083Z,3.58
2023-04-14T15:45:40.622Z,2.30
2023-04-14T15:48:07.162Z,1.27
2023-04-14T15:50:33.616Z,3.90
2023-04-14T15:53:11.227Z,1.38
2023-04-14T15:55:38.314Z,1.55
2023-04-14T15:58:05.392Z,1.75
2023-04-14T16:00:32.634Z,1.67
2023-04-14T16:03:01.027Z,2.15
2023-04-14T16:05:27.773Z,2.47
2023-04-14T16:07:54.234Z,2.42
2023-04-14T16:10:20.763Z,1.13
2023-04-14T16:12:48.576Z,1.63
2023-04-14T16:15:15.671Z,2.88
2023-04-14T16:17:42.320Z,3.75
2023-04-14T16:20:09.401Z,2.38
2023-04-14T16:22:35.910Z,2.40
2023-04-14T16:25:04.284Z,1.73
2023-04-14T16:27:30.770Z,2.58
2023-04-14T16:29:57.321Z,1.52
2023-04-14T16:32:24.835Z,1.33
2023-04-14T16:34:51.398Z,2.83
2023-04-14T16:37:17.956Z,1.83
2023-04-14T16:39:44.693Z,1.65
2023-04-14T16:42:11.126Z,1.92
2023-04-14T16:44:37.856Z,2.38
2023-04-14T16:47:04.312Z,2.15
2023-04-14T16:49:31.597Z,1.25
2023-04-14T16:51:58.392Z,4.93
2023-04-14T16:54:27.491Z,1.75
2023-04-14T16:56:53.916Z,1.95
2023-04-14T16:59:20.365Z,2.13
2023-04-14T17:01:46.999Z,1.08
2023-04-14T17:04:13.795Z,2.67
2023-04-14T17:06:40.408Z,1.48
2023-04-14T17:09:06.896Z,2.40
2023-04-14T17:11:33.302Z,2.15
2023-04-14T17:13:59.972Z,1.52
2023-04-14T17:16:27.314Z,1.55
2023-04-14T17:18:53.807Z,2.38
2023-04-14T17:21:20.273Z,2.20
2023-04-14T17:23:46.756Z,1.58
2023-04-14T17:26:16.020Z,2.50
2023-04-14T17:28:42.708Z,3.58
2023-04-14T17:31:14.056Z,4.10
2023-04-14T17:33:42.139Z,2.58
2023-04-14T17:36:09.711Z,1.80
2023-04-14T17:38:38.610Z,4.00
2023-04-14T17:41:05.856Z,2.05
2023-04-14T17:43:32.394Z,2.17
2023-04-14T17:45:58.848Z,2.42
2023-04-14T17:48:25.752Z,3.13
2023-04-14T17:50:52.788Z,2.30
2023-04-14T17:53:19.347Z,4.43
2023-04-14T17:55:46.055Z,7.05
2023-04-14T17:58:12.522Z,4.10
2023-04-14T18:00:39.311Z,2.70
2023-04-14T18:03:05.949Z,3.47
2023-04-14T18:05:32.494Z,2.97
2023-04-14T18:07:58.884Z,5.00
2023-04-14T18:10:25.328Z,3.53
2023-04-14T18:12:52.033Z,3.17
2023-04-14T18:15:19.162Z,3.43
2023-04-14T18:17:45.962Z,4.05
2023-04-14T18:20:12.714Z,4.30
2023-04-14T18:22:39.191Z,5.10
2023-04-14T18:25:06.734Z,1.97
2023-04-14T18:30:02.827Z,1.90
2023-04-14T18:32:31.144Z,1.77
2023-04-14T18:34:58.060Z,3.50
2023-04-14T18:37:24.586Z,2.67
2023-04-14T18:39:51.008Z,3.70
2023-04-14T18:42:17.548Z,4.87
2023-04-14T18:44:43.988Z,2.37
2023-04-14T18:47:10.395Z,2.83
2023-04-14T18:50:11.693Z,2.83
2023-04-14T18:52:38.222Z,5.53
2023-04-14T18:55:05.243Z,3.60
2023-04-14T18:57:54.584Z,4.17
2023-04-14T19:01:06.003Z,2.17
2023-04-14T19:03:33.273Z,2.53
2023-04-14T19:06:00.121Z,2.53
2023-04-14T19:08:27.364Z,2.93
2023-04-14T19:11:13.408Z,4.80
2023-04-14T19:13:41.898Z,7.73
2023-04-14T19:16:12.448Z,13.40
2023-04-14T19:18:39.889Z,10.40
2023-04-14T19:21:10.887Z,6.83
2023-04-14T19:23:38.267Z,5.23
2023-04-14T19:30:05.583Z,3.07
2023-04-14T19:32:56.328Z,4.37
2023-04-14T19:35:32.302Z,3.30
2023-04-14T19:37:58.870Z,2.23
2023-04-14T19:40:25.549Z,1.87
2023-04-14T19:42:55.239Z,3.90
2023-04-14T19:45:32.235Z,4.13
2023-04-14T19:47:58.990Z,3.70
2023-04-14T19:50:25.758Z,2.87
2023-04-14T19:52:52.550Z,7.40
2023-04-14T19:55:44.200Z,4.27
2023-04-14T19:58:10.962Z,5.43
2023-04-14T20:00:40.940Z,2.93
2023-04-14T20:03:07.960Z,4.70
2023-04-14T20:05:34.927Z,3.57
2023-04-14T20:08:01.560Z,3.90
2023-04-14T20:10:29.207Z,4.10
2023-04-14T20:12:58.193Z,3.73
2023-04-14T20:15:49.773Z,3.23
2023-04-14T20:18:18.056Z,5.10
2023-04-14T20:20:48.935Z,4.30
2023-04-14T20:23:16.074Z,4.07
2023-04-14T20:25:44.153Z,4.87
2023-04-14T20:28:28.222Z,5.20
2023-04-14T20:30:56.010Z,4.70
2023-04-14T20:33:23.189Z,6.07
2023-04-14T20:35:53.348Z,6.73
2023-04-14T20:38:43.504Z,6.77
2023-04-14T20:41:10.282Z,15.20
2023-04-14T20:43:37.212Z,13.93
2023-04-14T20:46:04.351Z,8.50
2023-04-14T20:48:32.339Z,9.03
2023-04-14T20:50:59.873Z,7.23
2023-04-14T20:53:28.556Z,4.73
2023-04-14T20:55:55.278Z,2.77
2023-04-14T20:58:21.919Z,5.27
2023-04-14T21:00:49.278Z,3.07
2023-04-14T21:03:16.278Z,3.00
2023-04-14T21:05:43.186Z,3.90
2023-04-14T21:08:09.785Z,3.60
2023-04-14T21:10:36.426Z,4.07
2023-04-14T21:15:30.207Z,3.30
2023-04-14T21:16:34.245Z,3.50
2023-04-14T21:19:04.336Z,5.10
2023-04-14T21:21:31.930Z,4.03
2023-04-14T21:23:59.040Z,3.43
2023-04-14T21:26:28.612Z,4.73
2023-04-14T21:28:55.320Z,5.60
2023-04-14T21:31:22.251Z,3.87
2023-04-14T21:33:49.119Z,5.60
2023-04-14T21:36:15.897Z,6.50
2023-04-14T21:38:42.644Z,2.70
2023-04-14T21:41:09.591Z,3.80
2023-04-14T21:43:38.649Z,4.93
2023-04-14T21:46:29.535Z,5.13
2023-04-14T21:48:56.680Z,3.03
2023-04-14T21:51:23.609Z,3.87
2023-04-14T21:53:50.311Z,3.90
2023-04-14T21:57:03.951Z,4.77
2023-04-14T21:59:30.765Z,3.73
2023-04-14T22:02:01.282Z,5.30
2023-04-14T22:04:35.845Z,3.37
2023-04-14T22:07:03.678Z,2.73
2023-04-14T22:09:30.216Z,4.03
2023-04-14T22:11:57.886Z,4.47
2023-04-14T22:14:36.179Z,3.33
2023-04-14T22:17:03.213Z,4.30
2023-04-14T22:19:30.024Z,3.80
2023-04-14T22:22:07.545Z,2.90
2023-04-14T22:24:36.862Z,2.83
2023-04-14T22:27:03.552Z,6.07
2023-04-14T22:29:43.492Z,4.60
2023-04-14T22:32:10.078Z,3.50
2023-04-14T22:34:37.475Z,4.10
2023-04-14T22:37:04.223Z,3.97
2023-04-14T22:39:31.015Z,4.80
2023-04-14T22:41:58.809Z,4.83
2023-04-14T22:44:25.661Z,4.40
2023-04-14T22:46:52.505Z,3.77
2023-04-14T22:49:19.308Z,3.53
2023-04-14T22:51:46.016Z,3.77
2023-04-14T22:54:12.763Z,4.27
2023-04-14T22:56:41.018Z,4.00
2023-04-14T22:59:07.739Z,6.10
2023-04-14T23:01:34.635Z,3.40
2023-04-14T23:04:01.511Z,5.03
2023-04-14T23:06:28.344Z,2.93
2023-04-14T23:12:55.063Z,5.00
2023-04-14T23:15:21.829Z,3.40
2023-04-14T23:17:48.689Z,4.53
2023-04-14T23:20:37.535Z,4.87
2023-04-14T23:23:05.871Z,4.43
2023-04-14T23:25:33.505Z,3.97
2023-04-14T23:28:00.176Z,5.93
2023-04-14T23:30:27.488Z,3.17
2023-04-14T23:32:54.491Z,4.87
2023-04-14T23:35:30.526Z,5.90
2023-04-14T23:38:02.446Z,4.63
2023-04-14T23:40:31.115Z,4.33
2023-04-14T23:42:59.227Z,3.60
2023-04-14T23:45:34.241Z,2.77
2023-04-14T23:48:00.974Z,2.17
2023-04-14T23:50:59.029Z,4.07
2023-04-14T23:53:17.445Z,3.23
2023-04-14T23:55:44.080Z,5.00
2023-04-14T23:58:37.313Z,4.30
